createdAt,value
2019-04-05T00:01:24.000Z,96099.71
2019-04-05T00:03:50.770Z,96104.02
2019-04-05T00:06:17.456Z,96093.99
2019-04-05T00:08:44.164Z,96094.23
2019-04-05T00:11:10.977Z,96095.20
2019-04-05T00:13:37.717Z,96090.89
2019-04-05T00:16:05.576Z,96093.96
2019-04-05T00:18:32.265Z,96102.48
2019-04-05T00:20:59.054Z,96110.59
2019-04-05T00:23:25.971Z,96113.16
2019-04-05T00:25:52.653Z,96120.19
2019-04-05T00:28:19.449Z,96122.89
2019-04-05T00:30:46.138Z,96128.00
2019-04-05T00:33:12.717Z,96131.67
2019-04-05T00:35:39.471Z,96133.27
2019-04-05T00:38:06.159Z,96127.05
2019-04-05T00:40:32.988Z,96131.42
2019-04-05T00:42:59.668Z,96136.83
2019-04-05T00:45:28.463Z,96137.64
2019-04-05T00:47:55.073Z,96133.38
2019-04-05T00:50:21.760Z,96140.95
2019-04-05T00:52:48.567Z,96142.05
2019-04-05T00:55:15.355Z,96147.97
2019-04-05T00:57:42.228Z,96148.22
2019-04-05T01:00:10.596Z,96150.92
2019-04-05T01:02:37.264Z,96142.80
2019-04-05T01:05:04.316Z,96142.13
2019-04-05T01:07:31.079Z,96142.30
2019-04-05T01:09:57.802Z,96136.89
2019-04-05T01:12:24.876Z,96147.47
2019-04-05T01:14:52.514Z,96143.48
2019-04-05T01:17:24.804Z,96148.40
2019-04-05T01:19:48.318Z,96156.77
2019-04-05T01:22:15.321Z,96156.69
2019-04-05T01:24:42.310Z,96152.41
2019-04-05T01:27:10.270Z,96148.15
2019-04-05T01:29:36.992Z,96160.43
2019-04-05T01:32:03.674Z,96160.78
2019-04-05T01:34:30.339Z,96158.42
2019-04-05T01:36:57.049Z,96157.21
2019-04-05T01:39:23.787Z,96160.30
2019-04-05T01:41:50.508Z,96152.18
2019-04-05T01:44:17.168Z,96153.23
2019-04-05T01:46:46.669Z,96154.63
2019-04-05T01:49:13.532Z,96155.23
2019-04-05T01:51:40.221Z,96169.77
2019-04-05T01:54:06.994Z,96171.62
2019-04-05T01:56:33.655Z,96172.72
2019-04-05T01:59:00.311Z,96173.83
2019-04-05T02:01:27.019Z,96168.36
2019-04-05T02:03:53.651Z,96170.00
2019-04-05T02:06:20.475Z,96163.73
2019-04-05T02:08:47.428Z,96162.89
2019-04-05T02:11:14.097Z,96154.77
2019-04-05T02:13:40.736Z,96167.09
2019-04-05T02:16:07.499Z,96171.40
2019-04-05T02:18:34.191Z,96171.48
2019-04-05T02:21:00.870Z,96169.03
2019-04-05T02:23:27.964Z,96163.67
2019-04-05T02:25:54.620Z,96163.12
2019-04-05T02:28:21.366Z,96164.77
2019-04-05T02:30:48.017Z,96162.31
2019-04-05T02:33:14.674Z,96165.31
2019-04-05T02:35:41.546Z,96162.82
2019-04-05T02:38:08.180Z,96169.28
2019-04-05T02:40:37.017Z,96171.73
2019-04-05T02:43:03.776Z,96173.39
2019-04-05T02:45:31.407Z,96178.00
2019-04-05T02:48:01.002Z,96181.00
2019-04-05T02:50:28.538Z,96181.25
2019-04-05T02:52:57.407Z,96183.16
2019-04-05T02:55:25.037Z,96184.50
2019-04-05T02:57:52.695Z,96184.03
2019-04-05T03:00:19.330Z,96198.99
2019-04-05T03:02:46.311Z,96201.66
2019-04-05T03:05:12.949Z,96194.89
2019-04-05T03:07:39.652Z,96203.27
2019-04-05T03:10:06.394Z,96193.80
2019-04-05T03:12:33.485Z,96200.85
2019-04-05T03:15:00.557Z,96197.69
2019-04-05T03:17:27.303Z,96205.30
2019-04-05T03:19:55.761Z,96199.08
2019-04-05T03:22:23.488Z,96200.94
2019-04-05T03:24:50.535Z,96200.39
2019-04-05T03:27:22.911Z,96200.94
2019-04-05T03:29:49.544Z,96200.43
2019-04-05T03:32:16.422Z,96200.98
2019-04-05T03:34:43.307Z,96208.29
2019-04-05T03:37:10.007Z,96210.23
2019-04-05T03:39:36.776Z,96210.23
2019-04-05T03:42:03.732Z,96211.88
2019-04-05T03:44:31.523Z,96208.38
2019-04-05T03:46:58.272Z,96207.31
2019-04-05T03:49:24.945Z,96207.91
2019-04-05T03:51:51.817Z,96211.02
2019-04-05T03:54:18.519Z,96212.12
2019-04-05T03:56:45.674Z,96214.23
2019-04-05T03:59:12.611Z,96212.12
2019-04-05T04:01:39.332Z,96214.64
2019-04-05T04:04:06.363Z,96208.47
2019-04-05T04:06:33.101Z,96206.06
2019-04-05T04:09:00.449Z,96215.31
2019-04-05T04:11:27.083Z,96214.72
2019-04-05T04:13:54.003Z,96219.66
2019-04-05T04:16:21.376Z,96223.67
2019-04-05T04:18:48.653Z,96220.72
2019-04-05T04:21:34.025Z,96222.06
2019-04-05T04:24:01.022Z,96219.62
2019-04-05T04:26:27.764Z,96221.77
2019-04-05T04:28:54.468Z,96220.38
2019-04-05T04:31:23.107Z,96224.44
2019-04-05T04:33:49.795Z,96224.19
2019-04-05T04:36:16.726Z,96220.53
2019-04-05T04:38:43.560Z,96223.71
2019-04-05T04:41:10.196Z,96223.97
2019-04-05T04:43:37.186Z,96227.51
2019-04-05T04:46:04.143Z,96230.76
2019-04-05T04:48:31.437Z,96226.41
2019-04-05T04:50:58.795Z,96226.67
2019-04-05T04:53:25.553Z,96231.78
2019-04-05T04:55:52.612Z,96235.55
2019-04-05T04:58:19.380Z,96232.04
2019-04-05T05:00:46.580Z,96225.31
2019-04-05T05:03:13.617Z,96231.48
2019-04-05T05:05:40.425Z,96230.76
2019-04-05T05:08:07.669Z,96226.48
2019-04-05T05:10:34.774Z,96231.94
2019-04-05T05:13:04.651Z,96234.86
2019-04-05T05:15:31.535Z,96235.70
2019-04-05T05:17:59.108Z,96233.32
2019-04-05T05:20:26.613Z,96239.02
2019-04-05T05:22:53.374Z,96243.58
2019-04-05T05:25:20.226Z,96245.41
2019-04-05T05:27:47.075Z,96248.47
2019-04-05T05:30:14.144Z,96242.97
2019-04-05T05:32:41.166Z,96250.78
2019-04-05T05:35:08.029Z,96254.65
2019-04-05T05:37:37.550Z,96253.37
2019-04-05T05:40:04.465Z,96255.23
2019-04-05T05:42:31.688Z,96249.24
2019-04-05T05:44:59.443Z,96248.95
2019-04-05T05:47:26.171Z,96249.72
2019-04-05T05:49:52.910Z,96252.13
2019-04-05T05:52:19.714Z,96250.45
2019-04-05T05:54:46.771Z,96248.80
2019-04-05T05:57:13.497Z,96249.91
2019-04-05T05:59:40.409Z,96249.57
2019-04-05T06:02:08.282Z,96257.35
2019-04-05T06:04:35.061Z,96260.82
2019-04-05T06:07:02.919Z,96265.17
2019-04-05T06:09:29.657Z,96265.97
2019-04-05T06:11:59.643Z,96270.28
2019-04-05T06:14:26.425Z,96262.69
2019-04-05T06:16:53.419Z,96264.36
2019-04-05T06:19:20.245Z,96256.03
2019-04-05T06:21:47.069Z,96254.94
2019-04-05T06:24:14.023Z,96255.53
2019-04-05T06:26:40.764Z,96257.09
2019-04-05T06:29:09.767Z,96251.91
2019-04-05T06:31:37.622Z,96251.77
2019-04-05T06:34:04.509Z,96250.11
2019-04-05T06:36:31.344Z,96254.64
2019-04-05T06:38:58.195Z,96258.07
2019-04-05T06:41:24.941Z,96254.17
2019-04-05T06:43:51.771Z,96255.38
2019-04-05T06:46:18.587Z,96253.98
2019-04-05T06:48:45.274Z,96261.77
2019-04-05T06:51:12.074Z,96251.17
2019-04-05T06:53:38.774Z,96253.50
2019-04-05T06:56:06.612Z,96254.27
2019-04-05T06:58:33.370Z,96250.97
2019-04-05T07:01:00.066Z,96253.89
2019-04-05T07:03:26.793Z,96256.56
2019-04-05T07:05:54.510Z,96251.58
2019-04-05T07:08:22.313Z,96256.66
2019-04-05T07:10:49.332Z,96250.10
2019-04-05T07:13:17.149Z,96251.16
2019-04-05T07:15:43.904Z,96259.48
2019-04-05T07:18:10.728Z,96261.35
2019-04-05T07:20:37.526Z,96259.95
2019-04-05T07:23:04.368Z,96255.30
2019-04-05T07:25:31.128Z,96261.27
2019-04-05T07:27:57.960Z,96264.73
2019-04-05T07:30:24.781Z,96263.01
2019-04-05T07:32:51.541Z,96265.16
2019-04-05T07:35:18.379Z,96267.23
2019-04-05T07:37:45.263Z,96269.43
2019-04-05T07:40:12.002Z,96269.43
2019-04-05T07:42:38.695Z,96264.27
2019-04-05T07:45:05.899Z,96264.31
2019-04-05T07:47:34.679Z,96264.27
2019-04-05T07:50:01.547Z,96270.19
2019-04-05T07:52:28.243Z,96273.95
2019-04-05T07:54:54.927Z,96269.64
2019-04-05T07:57:21.725Z,96271.59
2019-04-05T07:59:48.711Z,96274.80
2019-04-05T08:02:15.561Z,96276.20
2019-04-05T08:04:42.334Z,96272.69
2019-04-05T08:07:09.484Z,96284.83
2019-04-05T08:09:36.816Z,96283.98
2019-04-05T08:12:04.261Z,96288.04
2019-04-05T08:14:31.085Z,96291.84
2019-04-05T08:16:57.843Z,96289.64
2019-04-05T08:19:25.677Z,96284.61
2019-04-05T08:21:52.527Z,96290.28
2019-04-05T08:24:19.273Z,96298.40
2019-04-05T08:26:45.958Z,96295.95
2019-04-05T08:29:12.835Z,96303.47
2019-04-05T08:31:39.496Z,96305.37
2019-04-05T08:34:06.213Z,96304.28
2019-04-05T08:36:32.896Z,96309.14
2019-04-05T08:38:59.606Z,96306.14
2019-04-05T08:41:27.367Z,96307.33
2019-04-05T08:43:54.300Z,96305.08
2019-04-05T08:46:21.015Z,96301.78
2019-04-05T08:48:53.644Z,96309.61
2019-04-05T08:51:20.414Z,96313.80
2019-04-05T08:53:47.245Z,96317.30
2019-04-05T08:56:14.151Z,96316.80
2019-04-05T08:58:40.848Z,96314.42
2019-04-05T09:01:07.634Z,96310.66
2019-04-05T09:03:34.345Z,96312.94
2019-04-05T09:06:01.206Z,96312.09
2019-04-05T09:08:27.985Z,96305.17
2019-04-05T09:10:55.835Z,96308.38
2019-04-05T09:13:22.555Z,96318.91
2019-04-05T09:15:49.526Z,96307.70
2019-04-05T09:18:16.277Z,96314.72
2019-04-05T09:20:44.040Z,96311.01
2019-04-05T09:23:10.788Z,96310.92
2019-04-05T09:25:37.521Z,96309.09
2019-04-05T09:28:04.260Z,96310.09
2019-04-05T09:30:31.027Z,96311.16
2019-04-05T09:32:57.758Z,96309.17
2019-04-05T09:35:26.364Z,96312.63
2019-04-05T09:37:54.182Z,96312.89
2019-04-05T09:40:21.341Z,96317.11
2019-04-05T09:42:47.995Z,96310.84
2019-04-05T09:45:16.797Z,96316.47
2019-04-05T09:47:43.788Z,96321.48
2019-04-05T09:50:10.621Z,96320.55
2019-04-05T09:52:39.927Z,96329.23
2019-04-05T09:55:07.319Z,96331.14
2019-04-05T09:57:35.159Z,96324.02
2019-04-05T10:00:04.054Z,96322.54
2019-04-05T10:02:31.869Z,96320.89
2019-04-05T10:04:58.728Z,96322.16
2019-04-05T10:07:25.523Z,96316.95
2019-04-05T10:09:52.395Z,96319.86
2019-04-05T10:12:22.348Z,96314.53
2019-04-05T10:14:49.106Z,96303.76
2019-04-05T10:17:16.113Z,96305.38
2019-04-05T10:19:49.728Z,96297.50
2019-04-05T10:22:12.562Z,96296.30
2019-04-05T10:24:40.330Z,96291.67
2019-04-05T10:27:07.061Z,96291.94
2019-04-05T10:29:33.896Z,96292.22
2019-04-05T10:32:00.695Z,96291.84
2019-04-05T10:34:27.501Z,96303.14
2019-04-05T10:36:54.263Z,96303.70
2019-04-05T10:39:21.022Z,96302.16
2019-04-05T10:41:47.759Z,96300.95
2019-04-05T10:44:16.523Z,96305.08
2019-04-05T10:46:43.378Z,96299.77
2019-04-05T10:49:10.318Z,96303.09
2019-04-05T10:51:36.987Z,96302.96
2019-04-05T10:54:03.830Z,96299.50
2019-04-05T10:56:30.563Z,96297.09
2019-04-05T10:58:57.483Z,96303.58
2019-04-05T11:01:24.150Z,96298.39
2019-04-05T11:03:51.043Z,96293.96
2019-04-05T11:06:17.849Z,96296.55
2019-04-05T11:08:44.698Z,96287.31
2019-04-05T11:11:11.694Z,96285.20
2019-04-05T11:13:38.511Z,96284.84
2019-04-05T11:16:05.591Z,96279.84
2019-04-05T11:18:32.830Z,96279.84
2019-04-05T11:21:00.286Z,96275.59
2019-04-05T11:23:27.229Z,96286.63
2019-04-05T11:25:54.090Z,96275.93
2019-04-05T11:28:36.421Z,96271.49
2019-04-05T11:31:03.549Z,96270.26
2019-04-05T11:33:30.608Z,96263.09
2019-04-05T11:35:58.137Z,96264.34
2019-04-05T11:38:24.888Z,96265.20
2019-04-05T11:40:57.600Z,96254.24
2019-04-05T11:43:26.890Z,96257.14
2019-04-05T11:45:54.767Z,96253.38
2019-04-05T11:48:23.826Z,96253.69
2019-04-05T11:50:52.877Z,96251.63
2019-04-05T11:53:21.996Z,96254.62
2019-04-05T11:55:48.246Z,96255.00
2019-04-05T11:58:14.974Z,96252.62
2019-04-05T12:00:47.276Z,96248.87
2019-04-05T12:03:14.142Z,96242.65
2019-04-05T12:05:42.780Z,96246.88
2019-04-05T12:08:09.617Z,96240.16
2019-04-05T12:10:36.401Z,96228.47
2019-04-05T12:13:04.468Z,96240.12
2019-04-05T12:15:31.326Z,96243.55
2019-04-05T12:17:58.045Z,96241.91
2019-04-05T12:20:25.030Z,96235.89
2019-04-05T12:22:52.585Z,96234.16
2019-04-05T12:25:20.775Z,96224.10
2019-04-05T12:27:47.748Z,96223.49
2019-04-05T12:30:17.016Z,96215.48
2019-04-05T12:32:46.655Z,96213.39
2019-04-05T12:35:14.523Z,96218.63
2019-04-05T12:37:50.110Z,96218.84
2019-04-05T12:40:14.953Z,96210.70
2019-04-05T12:42:43.526Z,96213.57
2019-04-05T12:45:22.601Z,96201.91
2019-04-05T12:47:49.842Z,96199.55
2019-04-05T12:50:16.545Z,96192.48
2019-04-05T12:52:44.553Z,96188.45
2019-04-05T12:55:13.095Z,96186.38
2019-04-05T12:57:40.981Z,96187.41
2019-04-05T13:00:13.213Z,96182.80
2019-04-05T13:02:40.233Z,96190.84
2019-04-05T13:05:07.101Z,96183.75
2019-04-05T13:07:36.554Z,96180.98
2019-04-05T13:10:03.708Z,96181.55
2019-04-05T13:12:30.582Z,96187.90
2019-04-05T13:15:11.205Z,96189.81
2019-04-05T13:17:26.050Z,96182.01
2019-04-05T13:20:05.763Z,96178.30
2019-04-05T13:22:33.122Z,96173.88
2019-04-05T13:25:00.097Z,96172.84
2019-04-05T13:27:26.922Z,96166.82
2019-04-05T13:29:53.635Z,96168.09
2019-04-05T13:32:28.793Z,96164.94
2019-04-05T13:34:55.369Z,96163.16
2019-04-05T13:37:20.827Z,96160.70
2019-04-05T13:39:48.823Z,96155.41
2019-04-05T13:42:15.629Z,96160.20
2019-04-05T13:44:42.425Z,96147.66
2019-04-05T13:47:16.249Z,96149.74
2019-04-05T13:49:44.105Z,96144.54
2019-04-05T13:52:12.030Z,96138.45
2019-04-05T13:54:40.348Z,96138.58
2019-04-05T13:57:08.564Z,96144.65
2019-04-05T13:59:36.433Z,96130.29
2019-04-05T14:02:06.175Z,96127.30
2019-04-05T14:04:32.394Z,96128.29
2019-04-05T14:06:59.232Z,96126.17
2019-04-05T14:09:26.002Z,96123.11
2019-04-05T14:11:52.681Z,96121.72
2019-04-05T14:14:20.065Z,96123.94
2019-04-05T14:16:47.157Z,96124.88
2019-04-05T14:19:14.058Z,96122.48
2019-04-05T14:21:47.094Z,96123.72
2019-04-05T14:24:09.447Z,96121.27
2019-04-05T14:26:37.360Z,96116.38
2019-04-05T14:29:04.375Z,96113.87
2019-04-05T14:31:31.629Z,96112.00
2019-04-05T14:33:59.023Z,96114.86
2019-04-05T14:36:26.834Z,96110.27
2019-04-05T14:38:53.761Z,96112.13
2019-04-05T14:41:20.623Z,96106.50
2019-04-05T14:43:47.609Z,96090.60
2019-04-05T14:46:14.466Z,96113.27
2019-04-05T14:48:41.154Z,96113.76
2019-04-05T14:51:07.904Z,96111.94
2019-04-05T14:53:34.817Z,96119.73
2019-04-05T14:56:01.738Z,96118.55
2019-04-05T14:58:28.615Z,96117.41
2019-04-05T15:00:55.624Z,96104.63
2019-04-05T15:03:24.290Z,96110.14
2019-04-05T15:05:51.057Z,96103.09
2019-04-05T15:08:31.729Z,96105.38
2019-04-05T15:10:58.710Z,96095.89
2019-04-05T15:13:25.564Z,96098.73
2019-04-05T15:15:52.453Z,96095.97
2019-04-05T15:18:19.749Z,96093.48
2019-04-05T15:20:46.780Z,96097.11
2019-04-05T15:23:14.101Z,96101.05
2019-04-05T15:25:41.424Z,96095.50
2019-04-05T15:28:08.157Z,96102.48
2019-04-05T15:30:34.912Z,96100.96
2019-04-05T15:33:03.654Z,96097.33
2019-04-05T15:35:31.366Z,96090.50
2019-04-05T15:38:01.325Z,96095.45
2019-04-05T15:40:28.779Z,96090.33
2019-04-05T15:42:56.639Z,96090.21
2019-04-05T15:45:23.505Z,96094.79
2019-04-05T15:47:56.227Z,96089.67
2019-04-05T15:50:23.182Z,96097.58
2019-04-05T15:52:49.972Z,96095.64
2019-04-05T15:55:16.896Z,96089.73
2019-04-05T15:57:43.532Z,96093.38
2019-04-05T16:00:11.574Z,96089.88
2019-04-05T16:02:42.740Z,96097.14
2019-04-05T16:05:08.997Z,96092.47
2019-04-05T16:07:39.400Z,96095.77
2019-04-05T16:10:07.434Z,96091.22
2019-04-05T16:12:34.262Z,96090.91
2019-04-05T16:15:03.867Z,96086.80
2019-04-05T16:17:31.274Z,96092.25
2019-04-05T16:19:58.447Z,96095.78
2019-04-05T16:22:31.125Z,96093.06
2019-04-05T16:24:56.096Z,96095.22
2019-04-05T16:27:24.063Z,96096.80
2019-04-05T16:29:50.921Z,96096.11
2019-04-05T16:32:17.647Z,96099.30
2019-04-05T16:34:44.394Z,96099.05
2019-04-05T16:37:11.266Z,96096.91
2019-04-05T16:39:37.983Z,96092.36
2019-04-05T16:42:04.731Z,96091.67
2019-04-05T16:44:32.501Z,96089.38
2019-04-05T16:46:59.217Z,96086.98
2019-04-05T16:49:25.949Z,96089.36
2019-04-05T16:51:52.773Z,96086.40
2019-04-05T16:54:19.427Z,96082.85
2019-04-05T16:56:46.072Z,96087.98
2019-04-05T16:59:12.732Z,96080.91
2019-04-05T17:01:40.428Z,96074.86
2019-04-05T17:04:07.342Z,96071.17
2019-04-05T17:06:34.216Z,96077.30
2019-04-05T17:09:01.015Z,96076.73
2019-04-05T17:11:27.708Z,96073.63
2019-04-05T17:13:59.251Z,96081.67
2019-04-05T17:16:23.267Z,96073.59
2019-04-05T17:18:50.098Z,96076.31
2019-04-05T17:21:17.665Z,96074.26
2019-04-05T17:23:44.556Z,96068.91
2019-04-05T17:26:11.375Z,96070.16
2019-04-05T17:28:38.210Z,96065.70
2019-04-05T17:31:06.034Z,96073.76
2019-04-05T17:33:32.752Z,96079.51
2019-04-05T17:35:59.584Z,96083.45
2019-04-05T17:38:26.344Z,96086.47
2019-04-05T17:40:53.119Z,96082.25
2019-04-05T17:43:19.807Z,96079.01
2019-04-05T17:45:46.574Z,96083.05
2019-04-05T17:48:13.502Z,96083.73
2019-04-05T17:50:40.165Z,96088.48
2019-04-05T17:53:12.609Z,96087.45
2019-04-05T17:55:37.888Z,96092.44
2019-04-05T17:58:06.108Z,96097.98
2019-04-05T18:00:32.911Z,96102.30
2019-04-05T18:02:59.783Z,96101.27
2019-04-05T18:05:26.435Z,96102.72
2019-04-05T18:07:53.211Z,96098.73
2019-04-05T18:10:20.136Z,96100.74
2019-04-05T18:12:47.049Z,96100.72
2019-04-05T18:15:13.875Z,96106.02
2019-04-05T18:17:40.610Z,96099.95
2019-04-05T18:20:09.834Z,96106.83
2019-04-05T18:22:36.149Z,96101.80
2019-04-05T18:25:03.050Z,96106.77
2019-04-05T18:27:29.754Z,96111.27
2019-04-05T18:32:31.410Z,96116.72
2019-04-05T18:34:58.294Z,96116.53
2019-04-05T18:37:25.041Z,96115.59
2019-04-05T18:39:52.304Z,96115.20
2019-04-05T18:42:19.027Z,96118.57
2019-04-05T18:44:45.870Z,96123.71
2019-04-05T18:47:12.623Z,96138.68
2019-04-05T18:49:39.361Z,96140.23
2019-04-05T18:52:07.069Z,96154.81
2019-04-05T18:54:33.792Z,96154.42
2019-04-05T18:57:00.681Z,96159.95
2019-04-05T18:59:27.380Z,96161.71
2019-04-05T19:01:54.270Z,96172.67
2019-04-05T19:04:20.969Z,96170.39
2019-04-05T19:06:47.543Z,96174.87
2019-04-05T19:09:15.373Z,96179.59
2019-04-05T19:11:42.041Z,96175.19
2019-04-05T19:14:08.873Z,96182.39
2019-04-05T19:16:35.516Z,96188.22
2019-04-05T19:19:02.424Z,96185.38
2019-04-05T19:21:29.350Z,96187.37
2019-04-05T19:23:56.107Z,96190.72
2019-04-05T19:26:24.003Z,96189.44
2019-04-05T19:28:51.395Z,96184.88
2019-04-05T19:48:38.297Z,96182.38
2019-04-05T19:51:05.006Z,96182.70
2019-04-05T19:53:31.670Z,96187.16
2019-04-05T19:55:58.657Z,96186.29
2019-04-05T19:58:25.314Z,96196.75
2019-04-05T20:00:52.023Z,96199.71
2019-04-05T20:03:18.678Z,96192.67
2019-04-05T20:05:45.743Z,96195.99
2019-04-05T20:08:12.446Z,96199.52
2019-04-05T20:10:39.287Z,96197.35
2019-04-05T20:13:05.941Z,96193.91
2019-04-05T20:15:32.705Z,96193.10
2019-04-05T20:17:59.455Z,96200.80
2019-04-05T20:20:26.212Z,96206.31
2019-04-05T20:22:52.967Z,96208.22
2019-04-05T20:25:19.692Z,96208.61
2019-04-05T20:27:47.451Z,96207.88
2019-04-05T20:30:14.330Z,96204.19
2019-04-05T20:32:41.194Z,96204.25
2019-04-05T20:35:08.126Z,96203.70
2019-04-05T20:37:34.849Z,96207.60
2019-04-05T20:40:01.958Z,96220.94
2019-04-05T20:42:28.644Z,96220.94
2019-04-05T20:44:55.495Z,96217.42
2019-04-05T20:47:22.164Z,96213.34
2019-04-05T20:49:48.903Z,96217.80
2019-04-05T20:52:15.784Z,96225.95
2019-04-05T20:54:42.476Z,96219.02
2019-04-05T20:57:09.831Z,96217.59
2019-04-05T20:59:38.010Z,96214.38
2019-04-05T21:02:05.147Z,96214.45
2019-04-05T21:04:32.120Z,96211.49
2019-04-05T21:06:59.052Z,96213.72
2019-04-05T21:09:26.966Z,96215.14
2019-04-05T21:11:54.060Z,96215.77
2019-04-05T21:14:21.014Z,96223.11
2019-04-05T21:16:47.932Z,96222.63
2019-04-05T21:19:15.011Z,96227.63
2019-04-05T21:21:42.055Z,96222.27
2019-04-05T21:24:09.994Z,96225.64
2019-04-05T21:26:36.634Z,96222.19
2019-04-05T21:29:03.515Z,96228.41
2019-04-05T21:31:30.058Z,96227.68
2019-04-05T21:33:56.834Z,96228.86
2019-04-05T21:36:25.475Z,96225.95
2019-04-05T21:38:52.214Z,96228.98
2019-04-05T21:41:19.120Z,96228.48
2019-04-05T21:43:45.811Z,96225.78
2019-04-05T21:46:12.835Z,96227.69
2019-04-05T21:48:39.499Z,96233.12
2019-04-05T21:51:06.125Z,96232.62
2019-04-05T21:53:32.764Z,96238.61
2019-04-05T21:55:59.440Z,96241.08
2019-04-05T21:58:28.940Z,96240.59
2019-04-05T22:01:00.764Z,96251.13
2019-04-05T22:03:27.531Z,96245.45
2019-04-05T22:05:54.253Z,96250.64
2019-04-05T22:08:20.905Z,96255.02
2019-04-05T22:10:47.475Z,96253.45
2019-04-05T22:13:14.132Z,96253.45
2019-04-05T22:15:40.921Z,96255.36
2019-04-05T22:18:07.487Z,96259.43
2019-04-05T22:20:34.145Z,96255.11
2019-04-05T22:23:00.833Z,96260.05
2019-04-05T22:25:27.463Z,96255.91
2019-04-05T22:27:54.172Z,96262.45
2019-04-05T22:30:20.867Z,96263.25
2019-04-05T22:32:47.486Z,96265.66
2019-04-05T22:35:14.137Z,96264.30
2019-04-05T22:37:40.795Z,96254.47
2019-04-05T22:40:08.175Z,96250.15
2019-04-05T22:42:34.825Z,96259.98
2019-04-05T22:45:02.379Z,96265.23
2019-04-05T22:47:29.098Z,96263.63
2019-04-05T22:49:55.742Z,96262.27
2019-04-05T22:52:22.598Z,96270.97
2019-04-05T22:54:49.133Z,96264.23
2019-04-05T22:57:15.694Z,96272.44
2019-04-05T22:59:42.365Z,96265.97
2019-04-05T23:02:09.025Z,96268.24
2019-04-05T23:04:35.704Z,96266.14
2019-04-05T23:07:02.459Z,96270.02
2019-04-05T23:09:29.124Z,96273.19
2019-04-05T23:11:55.765Z,96270.84
2019-04-05T23:14:22.527Z,96273.42
2019-04-05T23:16:49.216Z,96271.12
2019-04-05T23:19:15.979Z,96272.07
2019-04-05T23:21:42.650Z,96272.43
2019-04-05T23:24:09.325Z,96271.48
2019-04-05T23:26:35.890Z,96271.05
2019-04-05T23:29:02.655Z,96270.55
2019-04-05T23:31:29.418Z,96273.58
2019-04-05T23:33:56.028Z,96276.73
2019-04-05T23:36:22.893Z,96273.87
2019-04-05T23:38:49.436Z,96279.91
2019-04-05T23:41:16.179Z,96278.05
2019-04-05T23:43:42.837Z,96275.89
2019-04-05T23:46:09.525Z,96277.91
2019-04-05T23:48:36.077Z,96285.03
2019-04-05T23:51:02.821Z,96275.67
2019-04-05T23:53:29.374Z,96283.60
2019-04-05T23:55:56.043Z,96290.17
2019-04-05T23:58:22.723Z,96291.33
